Ayrshire, Indiana
Current Conditions -  °F | °C
As of 12:55 PM on Monday 20 Oct 2014 (Local Time) from KHNB Reporting Station
Clear Clear  
Wind Chill: 64°   Ceiling: Unl
Heat Index: 64°   Visibility: 10mi
Dew Point: 54°   Wind: 15mph
Humidity: 68%   Direction: 240°WSW
Pressure: 29.92"   Gusts: 21mph
Location:  38.3488°N, 87.2217°W
Report Text: KHNB 201755Z AUTO 24013G18KT 10SM CLR 18/12 A2992 RMK AO1 10180 20090 57030
Loading
Personal Weather Stations






























Interactive Weather Map
Tropical Storm Tracking
New forecast layout! Learn more

10-Day Weather Forecast

Advertisements
Track Severe Weather on mobile